Time;durP1;ratioP1;P1;durP2;ratioP2;P2;SDS_P1;SDS_P2;PMS_P1;PMS_P2;Temp;Humidity;BMP_temperature;BMP_pressure;BME280_temperature;BME280_humidity;BME280_pressure;Samples;Min_cycle;Max_cycle;Signal;HPM_P1;HPM_P2
2023/10/12 00:01:24;;;;;;;;;;;;;;;11.90;100.00;100319.41;5058628;28;19971;-83
2023/10/12 00:03:55;;;;;;;;;;;;;;;11.97;100.00;100316.84;5064725;28;19912;-83
2023/10/12 00:06:20;;;;;;;;;;;;;;;12.03;100.00;100330.34;5067563;28;20325;-83
2023/10/12 00:08:46;;;;;;;;;;;;;;;11.87;100.00;100319.78;5066838;28;19920;-84
2023/10/12 00:11:11;;;;;;;;;;;;;;;11.94;100.00;100317.19;5072690;28;19909;-83
2023/10/12 00:13:41;;;;;;;;;;;;;;;12.09;100.00;100311.88;5063637;28;19912;-83
2023/10/12 00:16:06;;;;;;;;;;;;;;;11.98;100.00;100315.81;5065339;28;19920;-84
2023/10/12 00:18:35;;;;;;;;;;;;;;;11.99;100.00;100317.50;5067491;28;20477;-83
2023/10/12 00:21:05;;;;;;;;;;;;;;;11.86;100.00;100306.56;5059706;28;19963;-83
2023/10/12 00:23:33;;;;;;;;;;;;;;;11.95;100.00;100308.16;5066739;28;19912;-83
2023/10/12 00:25:59;;;;;;;;;;;;;;;11.94;100.00;100298.47;5064045;28;19919;-83
2023/10/12 00:28:28;;;;;;;;;;;;;;;11.70;100.00;100289.63;5070835;28;19913;-82
2023/10/12 00:30:57;;;;;;;;;;;;;;;11.87;100.00;100309.09;5066155;28;19916;-83
2023/10/12 00:33:23;;;;;;;;;;;;;;;11.71;100.00;100291.31;5068556;28;19955;-83
2023/10/12 00:35:50;;;;;;;;;;;;;;;11.74;100.00;100287.44;5068990;28;19916;-81
2023/10/12 00:38:18;;;;;;;;;;;;;;;11.84;100.00;100291.50;5052299;28;19916;-83
2023/10/12 00:40:57;;;;;;;;;;;;;;;11.70;100.00;100270.09;5070351;28;20295;-82
2023/10/12 00:43:23;;;;;;;;;;;;;;;11.62;100.00;100262.97;5070260;28;20667;-81
2023/10/12 00:45:49;;;;;;;;;;;;;;;11.86;100.00;100263.75;5062490;28;19934;-82
2023/10/12 00:48:19;;;;;;;;;;;;;;;11.82;100.00;100272.16;5074221;28;19919;-82
2023/10/12 00:50:45;;;;;;;;;;;;;;;11.79;100.00;100264.47;5081500;28;19913;-83
2023/10/12 00:53:30;;;;;;;;;;;;;;;11.74;100.00;100260.69;5057929;28;19908;-83
2023/10/12 00:55:56;;;;;;;;;;;;;;;11.72;100.00;100271.56;5049383;28;20002;-82
2023/10/12 00:58:22;;;;;;;;;;;;;;;11.76;100.00;100267.53;5040497;28;20375;-83
2023/10/12 01:00:53;;;;;;;;;;;;;;;11.74;100.00;100268.72;5067665;28;20405;-82
2023/10/12 01:13:36;;;;;;;;;;;;;;;11.67;100.00;100265.09;5068200;28;19939;-82
2023/10/12 01:16:11;;;;;;;;;;;;;;;11.68;100.00;100264.91;5049395;28;19920;-82
2023/10/12 01:18:38;;;;;;;;;;;;;;;11.56;100.00;100261.03;5046609;28;19967;-82
2023/10/12 01:21:03;;;;;;;;;;;;;;;11.68;100.00;100272.94;5065981;28;19963;-82
2023/10/12 01:23:30;;;;;;;;;;;;;;;11.62;100.00;100258.47;5069085;28;19959;-82
2023/10/12 01:26:08;;;;;;;;;;;;;;;11.59;100.00;100252.66;5086386;28;19914;-82
2023/10/12 01:28:35;;;;;;;;;;;;;;;11.69;100.00;100258.56;5086593;28;19912;-82
2023/10/12 01:31:01;;;;;;;;;;;;;;;11.58;100.00;100261.66;5069989;28;19912;-82
2023/10/12 01:33:26;;;;;;;;;;;;;;;11.63;100.00;100269.97;5086911;28;19908;-81
2023/10/12 01:35:51;;;;;;;;;;;;;;;11.49;100.00;100255.56;5069648;28;19916;-81
2023/10/12 01:38:17;;;;;;;;;;;;;;;11.58;100.00;100261.66;5087783;28;20385;-81
2023/10/12 01:40:52;;;;;;;;;;;;;;;11.58;100.00;100262.50;5086757;28;20023;-82
2023/10/12 01:43:18;;;;;;;;;;;;;;;11.33;100.00;100253.03;5086694;28;19916;-82
2023/10/12 01:45:44;;;;;;;;;;;;;;;11.28;100.00;100258.06;5087884;28;19914;-81
2023/10/12 01:48:16;;;;;;;;;;;;;;;11.39;100.00;100263.81;5086694;28;20340;-81
2023/10/12 01:50:41;;;;;;;;;;;;;;;11.36;100.00;100266.88;5086875;28;19951;-82
2023/10/12 01:55:51;;;;;;;;;;;;;;;11.32;100.00;100284.25;5059049;28;19912;-81
2023/10/12 01:58:17;;;;;;;;;;;;;;;11.36;100.00;100285.56;5066545;28;19912;-81
2023/10/12 02:00:47;;;;;;;;;;;;;;;11.31;100.00;100282.63;5070045;28;19928;-81
2023/10/12 02:03:17;;;;;;;;;;;;;;;11.32;100.00;100284.25;5070378;28;19926;-82
2023/10/12 02:05:47;;;;;;;;;;;;;;;11.19;100.00;100284.88;5070148;28;19974;-82
2023/10/12 02:08:17;;;;;;;;;;;;;;;11.24;100.00;100296.84;5053436;28;20444;-83
2023/10/12 02:10:56;;;;;;;;;;;;;;;11.20;100.00;100304.41;5070948;28;20383;-81
2023/10/12 02:13:21;;;;;;;;;;;;;;;11.21;100.00;100308.72;5035487;28;20445;-82
2023/10/12 02:15:49;;;;;;;;;;;;;;;11.23;100.00;100312.06;5062877;28;20322;-81
2023/10/12 02:18:16;;;;;;;;;;;;;;;11.14;100.00;100319.31;5052903;28;19913;-81
2023/10/12 02:23:57;;;;;;;;;;;;;;;11.11;100.00;100327.66;5022094;28;20501;-81
2023/10/12 02:29:35;;;;;;;;;;;;;;;11.17;100.00;100320.78;5014460;28;19916;-83
2023/10/12 02:34:17;;;;;;;;;;;;;;;11.11;100.00;100332.19;5007731;28;19913;-82
2023/10/12 02:37:05;;;;;;;;;;;;;;;11.04;100.00;100328.53;5011073;28;20405;-82
2023/10/12 02:39:31;;;;;;;;;;;;;;;11.09;100.00;100329.66;5028518;28;19913;-82
2023/10/12 02:47:24;;;;;;;;;;;;;;;11.13;100.00;100322.16;5002712;28;19913;-81
2023/10/12 02:49:50;;;;;;;;;;;;;;;11.11;100.00;100324.16;5027004;28;19979;-83
2023/10/12 02:52:16;;;;;;;;;;;;;;;11.00;100.00;100333.38;5011362;28;20443;-82
2023/10/12 02:54:51;;;;;;;;;;;;;;;11.19;100.00;100345.47;5058953;28;19959;-80
2023/10/12 02:57:31;;;;;;;;;;;;;;;11.08;100.00;100344.06;5067185;28;19912;-80
2023/10/12 03:00:12;;;;;;;;;;;;;;;11.10;100.00;100349.22;5061355;28;19912;-82
2023/10/12 03:02:41;;;;;;;;;;;;;;;11.11;100.00;100345.53;5072334;28;20450;-83
2023/10/12 03:05:07;;;;;;;;;;;;;;;11.14;100.00;100343.34;5067673;28;19908;-81
2023/10/12 03:07:35;;;;;;;;;;;;;;;11.15;100.00;100349.53;5066762;28;19916;-82
2023/10/12 03:10:06;;;;;;;;;;;;;;;11.09;100.00;100353.72;5069512;28;19955;-80
2023/10/12 03:12:34;;;;;;;;;;;;;;;11.19;100.00;100364.19;5065258;28;19912;-80
2023/10/12 03:15:02;;;;;;;;;;;;;;;11.10;100.00;100355.41;5056735;28;19991;-81
2023/10/12 03:17:28;;;;;;;;;;;;;;;11.03;100.00;100349.09;5067871;28;20431;-83
2023/10/12 03:20:06;;;;;;;;;;;;;;;11.01;100.00;100351.09;5068102;28;19967;-80
2023/10/12 03:22:31;;;;;;;;;;;;;;;10.96;100.00;100348.94;5067059;28;19916;-80
2023/10/12 03:25:05;;;;;;;;;;;;;;;11.11;100.00;100353.56;5071789;28;20518;-79
2023/10/12 03:27:33;;;;;;;;;;;;;;;11.10;100.00;100355.41;5059886;28;19922;-81
2023/10/12 03:30:08;;;;;;;;;;;;;;;11.07;100.00;100354.91;5076971;28;19915;-81
2023/10/12 03:32:33;;;;;;;;;;;;;;;11.15;100.00;100355.69;5067464;28;19920;-80
2023/10/12 03:34:59;;;;;;;;;;;;;;;11.02;100.00;100350.09;5073122;28;19934;-82
2023/10/12 03:37:44;;;;;;;;;;;;;;;10.91;100.00;100351.31;5069399;28;19912;-81
2023/10/12 03:43:16;;;;;;;;;;;;;;;10.87;100.00;100363.34;5029521;28;20379;-81
2023/10/12 03:46:17;;;;;;;;;;;;;;;10.96;100.00;100373.00;5025869;28;19959;-81
2023/10/12 03:51:41;;;;;;;;;;;;;;;11.00;100.00;100384.16;4999103;28;19941;-82
2023/10/12 03:56:51;;;;;;;;;;;;;;;10.82;100.00;100371.06;4976697;28;19920;-83
2023/10/12 03:59:27;;;;;;;;;;;;;;;10.89;100.00;100364.00;4992675;28;19918;-82
2023/10/12 04:01:54;;;;;;;;;;;;;;;10.91;100.00;100377.19;4982685;28;20051;-83
2023/10/12 04:04:27;;;;;;;;;;;;;;;11.06;100.00;100386.13;4992137;28;19918;-81
2023/10/12 04:09:42;;;;;;;;;;;;;;;10.99;100.00;100386.00;4996499;28;19918;-83
2023/10/12 04:14:50;;;;;;;;;;;;;;;10.93;100.00;100378.69;4991499;28;19995;-81
2023/10/12 04:20:11;;;;;;;;;;;;;;;10.87;100.00;100374.03;4994732;28;19913;-82
2023/10/12 04:23:15;;;;;;;;;;;;;;;10.99;100.00;100377.16;5024723;28;20035;-81
2023/10/12 04:25:46;;;;;;;;;;;;;;;11.01;100.00;100374.31;5064239;28;19916;-82
2023/10/12 04:28:32;;;;;;;;;;;;;;;10.94;100.00;100372.34;5068176;28;20291;-82
2023/10/12 04:33:27;;;;;;;;;;;;;;;10.89;100.00;100368.53;5065566;28;20014;-80
2023/10/12 04:36:09;;;;;;;;;;;;;;;10.88;100.00;100345.47;5067365;28;19997;-81
2023/10/12 04:43:53;;;;;;;;;;;;;;;10.91;100.00;100348.66;5068050;28;19916;-79
2023/10/12 04:49:39;;;;;;;;;;;;;;;10.86;100.00;100358.19;5062684;28;19955;-79
2023/10/12 04:52:04;;;;;;;;;;;;;;;10.93;100.00;100349.31;5063096;28;19957;-78
2023/10/12 04:54:31;;;;;;;;;;;;;;;10.88;100.00;100358.84;5072856;28;19912;-80
2023/10/12 04:57:11;;;;;;;;;;;;;;;10.83;100.00;100364.69;5069918;28;20321;-80
2023/10/12 05:02:28;;;;;;;;;;;;;;;10.59;100.00;100372.81;5063405;28;19960;-80
2023/10/12 05:09:51;;;;;;;;;;;;;;;10.74;100.00;100400.44;5070432;28;19916;-79
2023/10/12 05:12:20;;;;;;;;;;;;;;;10.61;100.00;100398.31;5064311;28;19909;-79
2023/10/12 05:14:46;;;;;;;;;;;;;;;10.50;100.00;100407.50;5070535;28;19924;-79
2023/10/12 05:17:11;;;;;;;;;;;;;;;10.57;100.00;100392.47;5062407;28;20470;-79
2023/10/12 05:19:37;;;;;;;;;;;;;;;10.56;100.00;100406.03;5073216;28;19924;-79
2023/10/12 05:22:02;;;;;;;;;;;;;;;10.59;100.00;100399.50;5072104;28;20440;-79
2023/10/12 05:24:27;;;;;;;;;;;;;;;10.61;100.00;100397.50;5065983;28;19922;-80
2023/10/12 05:27:09;;;;;;;;;;;;;;;10.44;100.00;100381.53;5068625;28;19921;-80
2023/10/12 05:29:38;;;;;;;;;;;;;;;10.51;100.00;100401.19;5083463;28;20130;-79
2023/10/12 05:32:06;;;;;;;;;;;;;;;10.58;100.00;100393.31;5071476;28;19967;-79
2023/10/12 05:34:34;;;;;;;;;;;;;;;10.45;100.00;100379.69;5075906;28;20364;-79
2023/10/12 05:37:18;;;;;;;;;;;;;;;10.43;100.00;100387.03;5071115;28;19916;-79
2023/10/12 05:39:55;;;;;;;;;;;;;;;10.31;100.00;100398.06;5085658;28;19920;-79
2023/10/12 05:42:25;;;;;;;;;;;;;;;10.38;100.00;100403.53;5072947;28;19987;-78
2023/10/12 05:44:51;;;;;;;;;;;;;;;10.40;100.00;100406.88;5073322;28;19916;-79
2023/10/12 05:47:28;;;;;;;;;;;;;;;10.43;100.00;100401.19;5068484;28;20011;-79
2023/10/12 05:49:54;;;;;;;;;;;;;;;10.44;100.00;100404.69;5064331;28;19973;-79
2023/10/12 05:52:20;;;;;;;;;;;;;;;10.30;100.00;100400.88;5067388;28;19916;-78
2023/10/12 05:54:45;;;;;;;;;;;;;;;10.43;100.00;100421.72;5071375;28;19957;-79
2023/10/12 05:57:19;;;;;;;;;;;;;;;10.30;100.00;100416.88;5063982;28;19915;-79
2023/10/12 05:59:46;;;;;;;;;;;;;;;10.34;100.00;100428.91;5062670;28;20428;-78
2023/10/12 06:02:13;;;;;;;;;;;;;;;10.19;100.00;100406.56;5071495;28;19920;-79
2023/10/12 06:04:38;;;;;;;;;;;;;;;10.39;100.00;100409.72;5068155;28;19924;-79
2023/10/12 06:07:05;;;;;;;;;;;;;;;10.43;100.00;100417.22;5068174;28;19913;-79
2023/10/12 06:09:35;;;;;;;;;;;;;;;10.48;100.00;100424.72;5068068;28;19962;-79
2023/10/12 06:12:06;;;;;;;;;;;;;;;10.52;100.00;100426.88;5066953;28;20264;-79
2023/10/12 06:14:32;;;;;;;;;;;;;;;10.32;100.00;100412.22;5068889;28;20284;-78
2023/10/12 06:17:02;;;;;;;;;;;;;;;10.36;100.00;100405.56;5071996;28;20140;-78
2023/10/12 06:19:29;;;;;;;;;;;;;;;10.59;100.00;100428.88;5064038;28;19916;-79
2023/10/12 06:22:13;;;;;;;;;;;;;;;10.62;100.00;100428.53;5063483;28;19916;-78
2023/10/12 06:24:41;;;;;;;;;;;;;;;10.55;100.00;100431.84;5065639;28;19921;-78
2023/10/12 06:29:45;;;;;;;;;;;;;;;10.51;100.00;100430.56;5061949;28;20465;-78
2023/10/12 06:32:17;;;;;;;;;;;;;;;10.53;100.00;100451.72;5066948;28;19909;-79
2023/10/12 06:34:42;;;;;;;;;;;;;;;10.29;100.00;100437.41;5069824;28;19912;-80
2023/10/12 06:37:30;;;;;;;;;;;;;;;10.49;100.00;100447.75;5065999;28;20007;-80
2023/10/12 06:40:37;;;;;;;;;;;;;;;10.64;100.00;100458.56;5067300;28;20168;-80
2023/10/12 06:45:38;;;;;;;;;;;;;;;10.64;100.00;100477.25;5068095;28;20393;-78
2023/10/12 06:48:22;;;;;;;;;;;;;;;10.38;100.00;100446.25;5066897;28;20411;-79
2023/10/12 06:50:53;;;;;;;;;;;;;;;10.61;100.00;100499.78;5069183;28;19958;-79
2023/10/12 06:53:24;;;;;;;;;;;;;;;10.54;100.00;100488.94;5062748;28;19923;-79
2023/10/12 06:55:57;;;;;;;;;;;;;;;10.77;100.00;100472.22;5064183;28;19916;-80
2023/10/12 06:58:36;;;;;;;;;;;;;;;10.77;100.00;100488.25;5068041;28;19917;-79
2023/10/12 07:01:18;;;;;;;;;;;;;;;10.77;100.00;100469.56;5068742;28;20760;-79
2023/10/12 07:03:47;;;;;;;;;;;;;;;10.81;100.00;100478.03;5066035;28;19985;-80
2023/10/12 07:06:15;;;;;;;;;;;;;;;10.87;100.00;100482.72;5069543;28;19912;-79
2023/10/12 07:08:42;;;;;;;;;;;;;;;11.11;100.00;100505.84;5067362;28;19947;-80
2023/10/12 07:11:08;;;;;;;;;;;;;;;11.23;100.00;100509.78;5064722;28;19952;-79
2023/10/12 07:13:39;;;;;;;;;;;;;;;11.29;100.00;100479.72;5064835;28;19917;-79
2023/10/12 07:16:06;;;;;;;;;;;;;;;11.40;100.00;100468.66;5066531;28;19912;-79
2023/10/12 07:18:34;;;;;;;;;;;;;;;11.76;100.00;100468.09;5064252;28;19917;-80
2023/10/12 07:20:59;;;;;;;;;;;;;;;12.02;100.00;100418.81;5071266;28;19916;-80
2023/10/12 07:23:35;;;;;;;;;;;;;;;12.21;100.00;100437.03;5063795;28;20287;-80
2023/10/12 07:26:06;;;;;;;;;;;;;;;12.64;100.00;100413.19;5069237;28;19916;-80
2023/10/12 07:28:35;;;;;;;;;;;;;;;12.93;100.00;100299.00;5062880;28;19912;-80
2023/10/12 07:33:52;;;;;;;;;;;;;;;14.18;100.00;100107.03;5065469;28;19912;-79
2023/10/12 07:36:17;;;;;;;;;;;;;;;14.40;100.00;100000.31;5060443;28;19916;-79
2023/10/12 07:38:45;;;;;;;;;;;;;;;14.57;100.00;99861.91;5064602;28;19916;-79
2023/10/12 07:41:11;;;;;;;;;;;;;;;14.13;100.00;99784.72;5066071;28;19920;-79
2023/10/12 07:43:38;;;;;;;;;;;;;;;13.72;100.00;99698.09;5074026;28;20263;-79
2023/10/12 07:46:14;;;;;;;;;;;;;;;13.49;100.00;99757.50;5064677;28;19935;-78
2023/10/12 07:48:42;;;;;;;;;;;;;;;14.03;100.00;99833.44;5064478;28;19943;-79
2023/10/12 07:51:19;;;;;;;;;;;;;;;13.99;100.00;99710.63;5062309;28;20705;-77
2023/10/12 07:54:42;;;;;;;;;;;;;;;13.90;100.00;99828.88;5066968;28;19913;-79
2023/10/12 07:56:40;;;;;;;;;;;;;;;13.37;100.00;99913.78;5063649;28;19924;-79
2023/10/12 07:59:13;;;;;;;;;;;;;;;13.15;100.00;99948.72;5061885;28;19920;-79
2023/10/12 08:01:39;;;;;;;;;;;;;;;12.79;100.00;99935.56;5066563;28;19925;-80
2023/10/12 08:04:09;;;;;;;;;;;;;;;12.79;100.00;100093.59;5066498;28;19908;-79
2023/10/12 08:09:05;;;;;;;;;;;;;;;12.70;100.00;100201.88;5066137;28;19977;-79
2023/10/12 08:11:34;;;;;;;;;;;;;;;12.80;100.00;100100.59;5062161;28;20164;-79
2023/10/12 08:14:10;;;;;;;;;;;;;;;13.22;100.00;100161.34;5070763;28;20360;-79
2023/10/12 08:16:40;;;;;;;;;;;;;;;13.59;100.00;100075.41;5064959;28;19916;-80
2023/10/12 08:21:34;;;;;;;;;;;;;;;13.73;100.00;100125.41;5058282;28;20354;-80
2023/10/12 08:26:35;;;;;;;;;;;;;;;15.56;100.00;100031.16;5064221;28;19912;-79
2023/10/12 08:29:17;;;;;;;;;;;;;;;15.55;100.00;99685.19;5065268;28;20217;-79
2023/10/12 08:31:46;;;;;;;;;;;;;;;15.53;100.00;99620.84;5064180;28;19912;-79
2023/10/12 08:37:17;;;;;;;;;;;;;;;16.08;100.00;99853.47;5066532;28;19916;-80
2023/10/12 08:45:05;;;;;;;;;;;;;;;16.70;100.00;99498.59;5067981;28;19913;-80
2023/10/12 08:50:08;;;;;;;;;;;;;;;16.01;100.00;99167.94;5060086;28;19970;-80
2023/10/12 08:52:34;;;;;;;;;;;;;;;16.31;100.00;99420.06;5065319;28;19924;-80
2023/10/12 08:55:13;;;;;;;;;;;;;;;17.29;100.00;99496.72;5065121;28;20646;-80
2023/10/12 08:57:43;;;;;;;;;;;;;;;17.71;100.00;99034.97;5066212;28;20291;-80
2023/10/12 09:02:51;;;;;;;;;;;;;;;17.47;100.00;98869.03;5069914;28;19912;-80
2023/10/12 09:05:24;;;;;;;;;;;;;;;18.73;100.00;99266.91;5067200;28;20006;-80
2023/10/12 09:08:05;;;;;;;;;;;;;;;20.36;100.00;98911.75;5064961;28;19923;-79
2023/10/12 09:10:58;;;;;;;;;;;;;;;19.63;97.00;98581.69;5042726;28;19912;-79
2023/10/12 09:13:25;;;;;;;;;;;;;;;20.34;96.88;98906.59;5061244;28;20359;-80
2023/10/12 09:15:54;;;;;;;;;;;;;;;20.10;97.09;98922.56;5064299;28;19912;-79
2023/10/12 09:18:21;;;;;;;;;;;;;;;18.41;95.15;98459.81;5061753;28;19916;-78
2023/10/12 09:21:04;;;;;;;;;;;;;;;18.39;99.15;98920.41;5065370;28;19931;-79
2023/10/12 09:23:33;;;;;;;;;;;;;;;18.07;100.00;98977.91;5060667;28;20353;-78
2023/10/12 09:28:53;;;;;;;;;;;;;;;17.42;100.00;99289.78;5060477;28;20364;-79
2023/10/12 09:31:52;;;;;;;;;;;;;;;16.90;100.00;99400.41;5059333;28;20422;-78
2023/10/12 09:36:37;;;;;;;;;;;;;;;16.61;100.00;99618.53;5064937;28;19913;-79
2023/10/12 09:39:03;;;;;;;;;;;;;;;16.68;100.00;99597.69;5063830;28;19913;-79
2023/10/12 09:41:32;;;;;;;;;;;;;;;16.36;100.00;99702.97;5074585;28;19916;-79
2023/10/12 09:44:00;;;;;;;;;;;;;;;16.92;100.00;99811.56;5088931;28;19916;-80
2023/10/12 09:46:27;;;;;;;;;;;;;;;17.28;100.00;99781.00;5081321;28;19919;-79
2023/10/12 09:49:02;;;;;;;;;;;;;;;17.48;100.00;99750.19;5071714;28;19935;-79
2023/10/12 09:51:33;;;;;;;;;;;;;;;18.36;100.00;99467.47;5085051;28;19943;-79
2023/10/12 09:54:00;;;;;;;;;;;;;;;17.70;100.00;99103.53;5088622;28;19912;-79
2023/10/12 09:56:28;;;;;;;;;;;;;;;17.43;100.00;99137.66;5088716;28;19974;-78
2023/10/12 09:59:08;;;;;;;;;;;;;;;16.86;100.00;99201.44;5088489;28;20606;-79
2023/10/12 10:07:09;;;;;;;;;;;;;;;19.25;100.00;99525.38;5080443;28;19912;-79
2023/10/12 10:12:04;;;;;;;;;;;;;;;20.40;93.79;99219.09;5082395;28;20294;-78
2023/10/12 10:14:34;;;;;;;;;;;;;;;19.86;90.26;98819.38;5058859;28;20001;-79
2023/10/12 10:17:00;;;;;;;;;;;;;;;19.94;90.13;98912.81;5086819;28;20430;-79
2023/10/12 10:19:29;;;;;;;;;;;;;;;20.63;87.40;98830.16;5087163;28;20350;-79
2023/10/12 10:22:16;;;;;;;;;;;;;;;20.59;85.44;98707.91;5090563;28;19916;-79
2023/10/12 10:24:45;;;;;;;;;;;;;;;19.71;85.54;98530.50;5089765;28;19912;-79
2023/10/12 10:27:12;;;;;;;;;;;;;;;17.64;86.43;98094.56;5092283;28;19990;-79
2023/10/12 10:29:41;;;;;;;;;;;;;;;17.25;94.36;98815.91;5091375;28;19912;-79
2023/10/12 10:32:07;;;;;;;;;;;;;;;17.30;98.65;99196.28;5088884;28;19912;-79
2023/10/12 10:34:34;;;;;;;;;;;;;;;17.50;100.00;99530.34;5089114;28;20358;-79
2023/10/12 10:36:59;;;;;;;;;;;;;;;17.30;100.00;99517.25;5081465;28;19927;-78
2023/10/12 10:39:28;;;;;;;;;;;;;;;17.00;100.00;99519.28;5066977;28;19912;-78
2023/10/12 10:41:54;;;;;;;;;;;;;;;17.02;100.00;99755.25;5062362;28;19920;-79
2023/10/12 10:44:26;;;;;;;;;;;;;;;16.33;100.00;99671.13;5063517;28;19923;-79
2023/10/12 10:46:57;;;;;;;;;;;;;;;16.28;100.00;99727.53;5071367;28;20016;-79
2023/10/12 10:49:28;;;;;;;;;;;;;;;15.74;100.00;99477.00;5073893;28;19922;-80
2023/10/12 10:52:02;;;;;;;;;;;;;;;15.88;100.00;99684.91;5068178;28;19916;-79
2023/10/12 10:54:27;;;;;;;;;;;;;;;16.14;100.00;99675.69;5065019;28;19955;-79
2023/10/12 10:56:54;;;;;;;;;;;;;;;16.06;100.00;99675.16;5067095;28;20390;-79
2023/10/12 10:59:22;;;;;;;;;;;;;;;15.84;100.00;99775.19;5066231;28;19916;-78
2023/10/12 11:01:50;;;;;;;;;;;;;;;15.51;100.00;99807.72;5066727;28;19918;-79
2023/10/12 11:04:26;;;;;;;;;;;;;;;15.60;100.00;99957.91;5048614;28;19919;-79
2023/10/12 11:06:53;;;;;;;;;;;;;;;15.28;100.00;99864.75;5064306;28;20460;-79
2023/10/12 11:09:22;;;;;;;;;;;;;;;16.27;100.00;100069.78;5061421;28;19912;-80
2023/10/12 11:11:58;;;;;;;;;;;;;;;17.20;100.00;99641.06;5064640;28;20270;-80
2023/10/12 11:14:31;;;;;;;;;;;;;;;18.64;100.00;99441.44;5071293;28;20333;-79
2023/10/12 11:17:00;;;;;;;;;;;;;;;19.09;99.12;99226.78;5071286;28;19912;-80
2023/10/12 11:19:27;;;;;;;;;;;;;;;18.89;94.28;98892.91;5083479;28;19938;-79
2023/10/12 11:21:52;;;;;;;;;;;;;;;20.50;87.53;98788.13;5082879;28;19976;-79
2023/10/12 11:24:18;;;;;;;;;;;;;;;20.29;83.68;98437.03;5083055;28;20378;-79
2023/10/12 11:26:54;;;;;;;;;;;;;;;21.08;81.78;98563.31;5084542;28;20499;-79
2023/10/12 11:29:20;;;;;;;;;;;;;;;21.59;79.81;98558.53;5081254;28;19972;-79
2023/10/12 11:32:10;;;;;;;;;;;;;;;20.10;76.24;97863.53;5083335;28;20007;-79
2023/10/12 11:34:41;;;;;;;;;;;;;;;20.20;79.00;98321.13;5085043;28;19913;-79
2023/10/12 11:37:07;;;;;;;;;;;;;;;21.31;77.46;98528.38;5071294;28;20187;-80
2023/10/12 11:39:39;;;;;;;;;;;;;;;21.81;76.04;98574.31;5067577;28;19912;-79
2023/10/12 11:42:06;;;;;;;;;;;;;;;20.79;69.53;97524.88;5070568;28;19927;-78
2023/10/12 11:44:36;;;;;;;;;;;;;;;20.52;70.87;97820.31;5060103;28;20394;-79
2023/10/12 11:47:07;;;;;;;;;;;;;;;19.89;70.92;97721.47;5068181;28;19961;-79
2023/10/12 11:49:49;;;;;;;;;;;;;;;20.06;70.73;97873.34;5060791;28;19912;-79
2023/10/12 11:52:22;;;;;;;;;;;;;;;19.49;70.41;97727.19;5064374;28;19916;-78
2023/10/12 11:54:48;;;;;;;;;;;;;;;19.07;69.48;97484.75;5064267;28;19917;-80
2023/10/12 11:57:13;;;;;;;;;;;;;;;19.70;68.95;97725.00;5077054;28;20502;-79
2023/10/12 11:59:39;;;;;;;;;;;;;;;20.53;70.83;98274.50;5075973;28;19920;-79
2023/10/12 12:02:08;;;;;;;;;;;;;;;20.76;69.35;98121.09;5083898;28;19916;-79
2023/10/12 12:04:40;;;;;;;;;;;;;;;20.21;68.53;97872.31;5080497;28;19962;-79
2023/10/12 12:07:10;;;;;;;;;;;;;;;20.36;68.54;97974.19;5062720;28;19915;-79
2023/10/12 12:09:35;;;;;;;;;;;;;;;20.25;65.49;97518.47;5089209;28;19922;-79
2023/10/12 12:12:01;;;;;;;;;;;;;;;20.70;66.87;97927.06;5089783;28;19916;-80
2023/10/12 12:14:26;;;;;;;;;;;;;;;21.15;64.82;97757.25;5088965;28;19908;-80
2023/10/12 12:16:52;;;;;;;;;;;;;;;20.03;65.27;97540.88;5084183;28;19955;-79
2023/10/12 12:19:24;;;;;;;;;;;;;;;20.35;66.52;97884.00;5083457;28;20282;-78
2023/10/12 12:21:49;;;;;;;;;;;;;;;19.12;65.83;97419.78;5078569;28;19923;-80
2023/10/12 12:26:45;;;;;;;;;;;;;;;19.75;67.16;97963.13;5086293;28;19977;-78
2023/10/12 12:29:11;;;;;;;;;;;;;;;19.90;68.18;98112.91;5077597;28;19912;-79
2023/10/12 12:31:37;;;;;;;;;;;;;;;19.22;69.16;98019.94;5089790;28;20348;-79
2023/10/12 12:34:06;;;;;;;;;;;;;;;19.85;69.91;98324.94;5082106;28;19965;-79
2023/10/12 12:36:31;;;;;;;;;;;;;;;19.99;68.14;98098.47;5073718;28;20523;-79
2023/10/12 12:38:57;;;;;;;;;;;;;;;20.10;70.46;98410.63;5074476;28;19958;-80
2023/10/12 12:41:26;;;;;;;;;;;;;;;20.12;69.88;98362.41;5079787;28;19916;-80
2023/10/12 12:43:52;;;;;;;;;;;;;;;19.80;67.82;97984.69;5080371;28;20048;-79
2023/10/12 12:46:18;;;;;;;;;;;;;;;20.34;68.79;98277.13;5080460;28;19912;-79
2023/10/12 12:48:45;;;;;;;;;;;;;;;19.97;66.67;97923.84;5087477;28;19916;-78
2023/10/12 12:51:12;;;;;;;;;;;;;;;19.22;67.42;97690.00;5088411;28;19962;-79
2023/10/12 12:53:37;;;;;;;;;;;;;;;19.92;70.70;98427.53;5079771;28;20371;-78
2023/10/12 12:56:02;;;;;;;;;;;;;;;20.54;69.04;98428.72;5082306;28;19933;-78
2023/10/12 12:58:28;;;;;;;;;;;;;;;20.89;68.79;98491.09;5079067;28;19919;-78
2023/10/12 13:00:55;;;;;;;;;;;;;;;20.76;68.68;98389.50;5087212;28;19927;-79
2023/10/12 13:03:22;;;;;;;;;;;;;;;20.70;67.71;98223.38;5087907;28;19998;-78
2023/10/12 13:05:47;;;;;;;;;;;;;;;20.61;66.17;98006.38;5076159;28;19919;-79
2023/10/12 13:08:16;;;;;;;;;;;;;;;21.07;65.82;98148.56;5079335;28;19912;-79
2023/10/12 13:10:41;;;;;;;;;;;;;;;21.60;64.21;98095.91;5074561;28;19981;-79
2023/10/12 13:13:06;;;;;;;;;;;;;;;21.33;65.09;98097.44;5080779;28;20358;-78
2023/10/12 13:15:32;;;;;;;;;;;;;;;21.05;65.88;98089.19;5078972;28;19908;-78
2023/10/12 13:17:58;;;;;;;;;;;;;;;20.91;64.82;97939.19;5070044;28;20337;-80
2023/10/12 13:20:29;;;;;;;;;;;;;;;20.69;65.66;97977.78;5070865;28;19916;-79
2023/10/12 13:22:57;;;;;;;;;;;;;;;20.79;67.07;98245.22;5072476;28;20001;-77
2023/10/12 13:25:25;;;;;;;;;;;;;;;20.45;66.25;97980.56;5073251;28;20421;-78
2023/10/12 13:27:51;;;;;;;;;;;;;;;20.60;66.69;98113.19;5079706;28;19991;-78
2023/10/12 13:30:17;;;;;;;;;;;;;;;20.43;67.01;98050.50;5079238;28;20010;-77
2023/10/12 13:32:42;;;;;;;;;;;;;;;20.85;67.47;98341.69;5066618;28;19908;-78
2023/10/12 13:37:52;;;;;;;;;;;;;;;21.33;65.93;98219.53;5073385;28;20421;-79
2023/10/12 13:40:17;;;;;;;;;;;;;;;20.01;66.21;97752.38;5081317;28;19908;-78
2023/10/12 13:42:43;;;;;;;;;;;;;;;19.75;69.27;98162.63;5081364;28;20390;-78
2023/10/12 13:45:12;;;;;;;;;;;;;;;18.97;71.09;98154.28;5083661;28;20298;-78
2023/10/12 13:47:38;;;;;;;;;;;;;;;19.75;72.03;98620.09;5080200;28;20288;-79
2023/10/12 13:50:05;;;;;;;;;;;;;;;19.96;70.14;98352.78;5080087;28;19911;-78
2023/10/12 13:52:30;;;;;;;;;;;;;;;19.85;67.85;98018.22;5087294;28;19912;-78
2023/10/12 13:54:57;;;;;;;;;;;;;;;19.92;69.80;98349.81;5089744;28;19961;-78
2023/10/12 13:57:22;;;;;;;;;;;;;;;19.43;67.51;97792.50;5089390;28;20362;-79
2023/10/12 13:59:48;;;;;;;;;;;;;;;19.00;68.93;97893.34;5088803;28;19912;-78
2023/10/12 14:02:13;;;;;;;;;;;;;;;17.96;68.15;97376.31;5089753;28;19951;-78
2023/10/12 14:04:40;;;;;;;;;;;;;;;18.03;67.90;97495.50;5075600;28;19945;-77
2023/10/12 14:07:07;;;;;;;;;;;;;;;17.87;68.98;97612.81;5087048;28;20510;-78
2023/10/12 14:09:32;;;;;;;;;;;;;;;17.17;71.83;97807.25;5086205;28;19981;-79
2023/10/12 14:11:57;;;;;;;;;;;;;;;16.80;70.25;97488.69;5082764;28;19912;-78
2023/10/12 14:14:27;;;;;;;;;;;;;;;16.92;71.62;97789.28;5082536;28;20334;-78
2023/10/12 14:16:52;;;;;;;;;;;;;;;16.84;70.95;97705.25;5083535;28;19915;-78
2023/10/12 14:19:22;;;;;;;;;;;;;;;16.81;74.65;98198.88;5091197;28;20505;-78
2023/10/12 14:21:54;;;;;;;;;;;;;;;16.43;75.39;98108.47;5069525;28;19923;-78
2023/10/12 14:24:23;;;;;;;;;;;;;;;16.23;77.87;98330.78;5083053;28;20081;-80
2023/10/12 14:26:49;;;;;;;;;;;;;;;16.62;78.20;98511.00;5080998;28;19991;-78
2023/10/12 14:29:18;;;;;;;;;;;;;;;17.05;81.39;98901.97;5081993;28;20011;-79
2023/10/12 14:31:43;;;;;;;;;;;;;;;16.54;77.13;98290.59;5087603;28;20057;-78
2023/10/12 14:34:13;;;;;;;;;;;;;;;16.75;79.80;98633.69;5084730;28;20042;-80
2023/10/12 14:36:40;;;;;;;;;;;;;;;16.50;82.07;98741.97;5090021;28;19916;-80
2023/10/12 14:39:06;;;;;;;;;;;;;;;15.88;78.62;98183.34;5075609;28;19917;-78